createdAt,value
2017-02-16T00:00:53.080Z,0
2017-02-16T00:02:03.030Z,0
2017-02-16T00:03:12.221Z,0
2017-02-16T00:04:22.178Z,0
2017-02-16T00:05:31.340Z,0
2017-02-16T00:06:40.471Z,0
2017-02-16T00:07:50.438Z,0
2017-02-16T00:09:00.010Z,0
2017-02-16T00:10:09.214Z,0
2017-02-16T00:11:19.163Z,0
2017-02-16T00:12:28.730Z,0
2017-02-16T00:13:38.296Z,0
2017-02-16T00:14:48.282Z,0
2017-02-16T00:15:58.235Z,0
2017-02-16T00:17:08.568Z,0
2017-02-16T00:18:18.167Z,0
2017-02-16T00:19:28.119Z,0
2017-02-16T00:20:37.664Z,0
2017-02-16T00:21:46.823Z,0
2017-02-16T00:22:56.799Z,0
2017-02-16T00:24:06.338Z,0
2017-02-16T00:25:15.511Z,0
2017-02-16T00:26:25.478Z,0
2017-02-16T00:27:35.019Z,0
2017-02-16T00:28:44.530Z,0
2017-02-16T00:29:55.255Z,0
2017-02-16T00:31:05.980Z,0
2017-02-16T00:32:15.117Z,0
2017-02-16T00:33:24.661Z,0
2017-02-16T00:34:34.609Z,0
2017-02-16T00:35:44.498Z,0
2017-02-16T00:36:54.043Z,0
2017-02-16T00:38:03.614Z,0
2017-02-16T00:39:13.181Z,0
2017-02-16T00:40:23.139Z,0
2017-02-16T00:41:32.691Z,0
2017-02-16T00:42:41.859Z,0
2017-02-16T00:43:51.051Z,0
2017-02-16T00:45:00.620Z,0
2017-02-16T00:46:10.200Z,0
2017-02-16T00:47:18.998Z,0
2017-02-16T00:48:29.284Z,0
2017-02-16T00:49:39.238Z,0
2017-02-16T00:50:48.796Z,0
2017-02-16T00:51:58.759Z,0
2017-02-16T00:53:08.317Z,0
2017-02-16T00:54:17.837Z,0
2017-02-16T00:55:27.376Z,0
2017-02-16T00:56:37.267Z,0
2017-02-16T00:57:46.779Z,0
2017-02-16T00:58:55.552Z,0
2017-02-16T01:00:05.131Z,0
2017-02-16T01:01:14.305Z,0
2017-02-16T01:02:24.234Z,0
2017-02-16T01:03:33.421Z,0
2017-02-16T01:04:43.790Z,0
2017-02-16T01:05:52.973Z,0
2017-02-16T01:07:02.501Z,0
2017-02-16T01:08:12.050Z,0
2017-02-16T01:09:22.729Z,0
2017-02-16T01:10:33.463Z,0
2017-02-16T01:11:43.347Z,0
2017-02-16T01:12:52.886Z,0
2017-02-16T01:14:03.167Z,0
2017-02-16T01:15:12.712Z,0
2017-02-16T01:16:22.289Z,0
2017-02-16T01:17:31.901Z,0
2017-02-16T01:18:41.467Z,0
2017-02-16T01:19:51.023Z,0
2017-02-16T01:21:00.160Z,0
2017-02-16T01:22:09.705Z,0
2017-02-16T01:23:20.442Z,0
2017-02-16T01:24:29.252Z,0
2017-02-16T01:25:38.755Z,0
2017-02-16T01:26:48.688Z,0
2017-02-16T01:27:58.240Z,0
2017-02-16T01:29:07.801Z,0
2017-02-16T01:30:17.947Z,0
2017-02-16T01:31:27.450Z,0
2017-02-16T01:32:37.014Z,0
2017-02-16T01:33:46.583Z,0
2017-02-16T01:34:55.768Z,0
2017-02-16T01:36:05.667Z,0
2017-02-16T01:37:15.581Z,0
2017-02-16T01:38:25.126Z,0
2017-02-16T01:39:35.456Z,0
2017-02-16T01:40:44.970Z,0
2017-02-16T01:41:54.123Z,0
2017-02-16T01:43:03.682Z,0
2017-02-16T01:44:13.960Z,0
2017-02-16T01:45:23.058Z,0
2017-02-16T01:46:32.605Z,0
2017-02-16T01:47:41.721Z,0
2017-02-16T01:48:51.253Z,0
2017-02-16T01:50:00.831Z,0
2017-02-16T01:51:10.772Z,0
2017-02-16T01:52:20.343Z,0
2017-02-16T01:53:30.278Z,0
2017-02-16T01:54:40.206Z,0
2017-02-16T01:55:49.773Z,0
2017-02-16T01:56:58.898Z,0
2017-02-16T01:58:08.822Z,0
2017-02-16T01:59:18.766Z,0
2017-02-16T02:00:28.319Z,0
2017-02-16T02:01:38.661Z,0
2017-02-16T02:02:48.188Z,0
2017-02-16T02:03:58.516Z,0
2017-02-16T02:05:08.845Z,0
2017-02-16T02:06:18.451Z,0
2017-02-16T02:07:27.956Z,0
2017-02-16T02:08:37.875Z,0
2017-02-16T02:09:47.432Z,0
2017-02-16T02:10:57.372Z,0
2017-02-16T02:12:07.269Z,0
2017-02-16T02:13:16.436Z,0
2017-02-16T02:14:26.000Z,0
2017-02-16T02:15:35.577Z,0
2017-02-16T02:16:45.157Z,0
2017-02-16T02:17:54.678Z,0
2017-02-16T02:19:04.221Z,0
2017-02-16T02:20:14.154Z,0
2017-02-16T02:21:23.323Z,0
2017-02-16T02:22:32.883Z,0
2017-02-16T02:23:42.828Z,0
2017-02-16T02:24:53.119Z,0
2017-02-16T02:26:03.054Z,0
2017-02-16T02:27:13.017Z,0
2017-02-16T02:28:21.807Z,0
2017-02-16T02:29:31.756Z,0
2017-02-16T02:30:40.928Z,0
2017-02-16T02:31:51.233Z,0
2017-02-16T02:33:01.169Z,0
2017-02-16T02:34:11.110Z,0
2017-02-16T02:35:20.676Z,0
2017-02-16T02:36:29.837Z,0
2017-02-16T02:37:39.793Z,0
2017-02-16T02:38:49.365Z,0
2017-02-16T02:39:58.869Z,0
2017-02-16T02:41:08.019Z,0
2017-02-16T02:42:17.965Z,0
2017-02-16T02:43:28.301Z,0
2017-02-16T02:44:38.246Z,0
2017-02-16T02:45:48.194Z,0
2017-02-16T02:46:57.315Z,0
2017-02-16T02:48:07.244Z,0
2017-02-16T02:49:16.421Z,0
2017-02-16T02:50:26.313Z,0
2017-02-16T02:51:35.415Z,0
2017-02-16T02:52:45.724Z,0
2017-02-16T02:53:54.920Z,0
2017-02-16T02:55:04.506Z,0
2017-02-16T02:56:13.689Z,0
2017-02-16T02:57:23.251Z,0
2017-02-16T02:58:33.132Z,0
2017-02-16T02:59:42.661Z,0
2017-02-16T03:00:53.015Z,0
2017-02-16T03:02:02.969Z,0
2017-02-16T03:03:12.964Z,0
2017-02-16T03:04:23.053Z,0
2017-02-16T03:05:32.593Z,0
2017-02-16T03:06:42.520Z,0
2017-02-16T03:07:51.715Z,0
2017-02-16T03:09:01.658Z,0
2017-02-16T03:10:11.621Z,0
2017-02-16T03:11:20.787Z,0
2017-02-16T03:12:29.981Z,0
2017-02-16T03:13:39.937Z,0
2017-02-16T03:14:49.057Z,0
2017-02-16T03:15:58.609Z,0
2017-02-16T03:17:07.794Z,0
2017-02-16T03:18:17.686Z,0
2017-02-16T03:19:27.235Z,0
2017-02-16T03:20:37.592Z,0
2017-02-16T03:21:47.535Z,0
2017-02-16T03:22:57.858Z,0
2017-02-16T03:24:07.436Z,0
2017-02-16T03:25:16.235Z,0
2017-02-16T03:26:25.762Z,0
2017-02-16T03:27:34.909Z,0
2017-02-16T03:28:45.231Z,0
2017-02-16T03:29:54.792Z,0
2017-02-16T03:31:04.744Z,0
2017-02-16T03:32:14.304Z,0
2017-02-16T03:33:23.471Z,0
2017-02-16T03:34:33.811Z,0
2017-02-16T03:35:43.367Z,0
2017-02-16T03:36:52.532Z,0
2017-02-16T03:38:02.446Z,0
2017-02-16T03:39:12.380Z,0
2017-02-16T03:40:21.944Z,0
2017-02-16T03:41:31.130Z,0
2017-02-16T03:42:41.106Z,0
2017-02-16T03:43:51.440Z,0
2017-02-16T03:45:00.990Z,0
2017-02-16T03:46:10.182Z,0
2017-02-16T03:47:19.376Z,0
2017-02-16T03:48:28.959Z,0
2017-02-16T03:49:38.923Z,0
2017-02-16T03:50:48.442Z,0
2017-02-16T03:51:58.390Z,0
2017-02-16T03:53:08.752Z,0
2017-02-16T03:54:17.553Z,0
2017-02-16T03:55:27.888Z,0
2017-02-16T03:56:37.467Z,0
2017-02-16T03:57:46.968Z,0
2017-02-16T03:58:57.282Z,0
2017-02-16T04:00:07.223Z,0
2017-02-16T04:01:16.775Z,0
2017-02-16T04:02:25.549Z,0
2017-02-16T04:03:35.893Z,0
2017-02-16T04:04:45.860Z,0
2017-02-16T04:05:55.033Z,0
2017-02-16T04:07:05.377Z,0
2017-02-16T04:08:14.940Z,0
2017-02-16T04:09:24.145Z,0
2017-02-16T04:10:33.321Z,0
2017-02-16T04:11:43.276Z,0
2017-02-16T04:12:53.634Z,0
2017-02-16T04:14:03.588Z,0
2017-02-16T04:15:13.966Z,0
2017-02-16T04:16:24.307Z,0
2017-02-16T04:17:33.838Z,0
2017-02-16T04:18:43.390Z,0
2017-02-16T04:19:52.978Z,0
2017-02-16T04:21:02.542Z,0
2017-02-16T04:22:12.053Z,0
2017-02-16T04:23:21.601Z,0
2017-02-16T04:24:31.569Z,0
2017-02-16T04:25:41.481Z,0
2017-02-16T04:26:51.447Z,0
2017-02-16T04:28:01.767Z,0
2017-02-16T04:29:11.700Z,0
2017-02-16T04:30:20.819Z,0
2017-02-16T04:31:29.538Z,0
2017-02-16T04:32:39.864Z,0
2017-02-16T04:33:49.076Z,0
2017-02-16T04:34:58.997Z,0
2017-02-16T04:36:08.953Z,0
2017-02-16T04:37:19.672Z,0
2017-02-16T04:38:29.246Z,0
2017-02-16T04:39:38.422Z,0
2017-02-16T04:40:47.986Z,0
2017-02-16T04:41:57.499Z,0
2017-02-16T04:43:07.036Z,0
2017-02-16T04:44:15.822Z,0
2017-02-16T04:45:25.721Z,0
2017-02-16T04:46:34.849Z,0
2017-02-16T04:47:44.784Z,0
2017-02-16T04:48:54.708Z,0
2017-02-16T04:50:04.644Z,0
2017-02-16T04:51:14.979Z,0
2017-02-16T04:52:24.170Z,0
2017-02-16T04:53:33.737Z,0
2017-02-16T04:54:43.261Z,0
2017-02-16T04:55:53.531Z,0
2017-02-16T04:57:03.067Z,0
2017-02-16T04:58:13.011Z,0
2017-02-16T04:59:21.788Z,0
2017-02-16T05:00:32.117Z,0
2017-02-16T05:01:42.072Z,0
2017-02-16T05:02:51.650Z,0
2017-02-16T05:04:00.810Z,0
2017-02-16T05:05:10.377Z,0
2017-02-16T05:06:19.169Z,0
2017-02-16T05:07:29.102Z,0
2017-02-16T05:08:38.672Z,0
2017-02-16T05:09:48.241Z,0
2017-02-16T05:10:57.430Z,0
2017-02-16T05:12:06.981Z,0
2017-02-16T05:13:17.268Z,0
2017-02-16T05:14:26.826Z,0
2017-02-16T05:15:36.772Z,0
2017-02-16T05:16:46.322Z,0
2017-02-16T05:17:55.461Z,0
2017-02-16T05:19:05.016Z,0
2017-02-16T05:20:14.600Z,0
2017-02-16T05:21:24.536Z,0
2017-02-16T05:22:33.710Z,0
2017-02-16T05:23:43.977Z,0
2017-02-16T05:24:53.887Z,0
2017-02-16T05:26:03.063Z,0
2017-02-16T05:27:12.623Z,0
2017-02-16T05:28:21.363Z,0
2017-02-16T05:29:30.531Z,0
2017-02-16T05:30:39.697Z,0
2017-02-16T05:31:49.257Z,0
2017-02-16T05:32:58.820Z,0
2017-02-16T05:34:08.780Z,0
2017-02-16T05:35:18.283Z,0
2017-02-16T05:36:27.772Z,0
2017-02-16T05:37:36.931Z,0
2017-02-16T05:38:46.113Z,0
2017-02-16T05:39:55.694Z,0
2017-02-16T05:41:04.884Z,0
2017-02-16T05:42:14.015Z,0
2017-02-16T05:43:23.948Z,0
2017-02-16T05:44:33.519Z,0
2017-02-16T05:45:42.537Z,0
2017-02-16T05:46:51.328Z,0
2017-02-16T05:48:01.671Z,0
2017-02-16T05:49:11.616Z,0
2017-02-16T05:50:21.585Z,0
2017-02-16T05:51:30.779Z,0
2017-02-16T05:52:40.664Z,0
2017-02-16T05:53:50.562Z,0
2017-02-16T05:54:59.678Z,0
2017-02-16T05:56:09.230Z,0
2017-02-16T05:57:18.833Z,0
2017-02-16T05:58:28.032Z,0
2017-02-16T05:59:37.225Z,0
2017-02-16T06:00:46.791Z,0
2017-02-16T06:01:56.738Z,0
2017-02-16T06:03:06.694Z,0
2017-02-16T06:04:16.276Z,0
2017-02-16T06:05:25.059Z,0
2017-02-16T06:06:35.333Z,0
2017-02-16T06:07:44.890Z,0
2017-02-16T06:08:54.064Z,0
2017-02-16T06:10:04.009Z,0
2017-02-16T06:11:13.958Z,0
2017-02-16T06:12:24.481Z,0
2017-02-16T06:13:34.423Z,0
2017-02-16T06:14:44.383Z,0
2017-02-16T06:15:54.274Z,0
2017-02-16T06:17:03.469Z,4
2017-02-16T06:18:12.644Z,0
2017-02-16T06:19:22.206Z,0
2017-02-16T06:20:31.770Z,0
2017-02-16T06:21:41.329Z,0
2017-02-16T06:22:51.264Z,0
2017-02-16T06:24:00.828Z,4
2017-02-16T06:25:10.392Z,4
2017-02-16T06:26:20.115Z,4
2017-02-16T06:27:29.278Z,4
2017-02-16T06:28:38.389Z,4
2017-02-16T06:29:47.543Z,0
2017-02-16T06:30:57.823Z,0
2017-02-16T06:32:07.368Z,4
2017-02-16T06:33:16.919Z,4
2017-02-16T06:34:26.112Z,4
2017-02-16T06:35:35.280Z,4
2017-02-16T06:36:44.858Z,8
2017-02-16T06:37:54.838Z,4
2017-02-16T06:39:04.790Z,4
2017-02-16T06:40:14.740Z,8
2017-02-16T06:41:24.698Z,4
2017-02-16T06:42:34.294Z,4
2017-02-16T06:43:43.083Z,8
2017-02-16T06:44:53.058Z,8
2017-02-16T06:46:02.993Z,4
2017-02-16T06:47:12.931Z,12
2017-02-16T06:48:22.510Z,12
2017-02-16T06:49:32.868Z,16
2017-02-16T06:50:42.449Z,16
2017-02-16T06:51:53.176Z,16
2017-02-16T06:53:02.699Z,16
2017-02-16T06:54:12.240Z,12
2017-02-16T06:55:21.805Z,12
2017-02-16T06:56:31.373Z,12
2017-02-16T06:57:40.536Z,12
2017-02-16T06:58:50.815Z,16
2017-02-16T07:00:01.136Z,16
2017-02-16T07:01:14.654Z,16
2017-02-16T07:02:24.599Z,20
2017-02-16T07:03:34.173Z,20
2017-02-16T07:04:43.736Z,20
2017-02-16T07:05:53.692Z,24
2017-02-16T07:07:03.633Z,24
2017-02-16T07:08:13.199Z,24
2017-02-16T07:09:23.150Z,24
2017-02-16T07:10:33.106Z,20
2017-02-16T07:11:43.062Z,16
2017-02-16T07:12:52.258Z,12
2017-02-16T07:14:02.541Z,12
2017-02-16T07:15:12.852Z,12
2017-02-16T07:16:21.958Z,12
2017-02-16T07:17:31.900Z,8
2017-02-16T07:18:41.481Z,16
2017-02-16T07:19:51.450Z,16
2017-02-16T07:21:01.382Z,20
2017-02-16T07:22:11.715Z,24
2017-02-16T07:23:21.665Z,28
2017-02-16T07:24:31.945Z,36
2017-02-16T07:25:41.111Z,40
2017-02-16T07:26:50.688Z,48
2017-02-16T07:28:01.011Z,52
2017-02-16T07:29:10.593Z,56
2017-02-16T07:30:19.774Z,68
2017-02-16T07:31:29.713Z,80
2017-02-16T07:32:39.668Z,88
2017-02-16T07:33:49.287Z,84
2017-02-16T07:34:58.845Z,76
2017-02-16T07:36:09.108Z,68
2017-02-16T07:37:18.650Z,76
2017-02-16T07:38:28.202Z,76
2017-02-16T07:39:37.377Z,72
2017-02-16T07:40:46.590Z,72
2017-02-16T07:41:56.580Z,68
2017-02-16T07:43:05.703Z,76
2017-02-16T07:44:15.631Z,80
2017-02-16T07:45:25.584Z,92
2017-02-16T07:46:35.133Z,100
2017-02-16T07:47:44.707Z,104
2017-02-16T07:48:54.266Z,88
2017-02-16T07:50:04.158Z,84
2017-02-16T07:51:12.928Z,84
2017-02-16T07:52:22.501Z,84
2017-02-16T07:53:31.657Z,80
2017-02-16T07:54:41.198Z,80
2017-02-16T07:55:50.765Z,72
2017-02-16T07:57:00.711Z,80
2017-02-16T07:58:10.666Z,84
2017-02-16T07:59:20.568Z,92
2017-02-16T08:00:30.061Z,100
2017-02-16T08:01:39.935Z,112
2017-02-16T08:02:49.434Z,112
2017-02-16T08:03:59.365Z,108
2017-02-16T08:05:08.947Z,108
2017-02-16T08:06:17.697Z,104
2017-02-16T08:07:27.962Z,104
2017-02-16T08:08:37.502Z,112
2017-02-16T08:09:47.035Z,116
2017-02-16T08:10:57.000Z,124
2017-02-16T08:12:06.212Z,128
2017-02-16T08:13:14.995Z,120
2017-02-16T08:14:24.947Z,112
2017-02-16T08:15:34.495Z,108
2017-02-16T08:16:44.071Z,108
2017-02-16T08:17:54.029Z,112
2017-02-16T08:19:03.216Z,116
2017-02-16T08:20:13.499Z,120
2017-02-16T08:21:23.427Z,128
2017-02-16T08:22:33.756Z,136
2017-02-16T08:23:44.088Z,128
2017-02-16T08:24:53.986Z,128
2017-02-16T08:26:03.143Z,152
2017-02-16T08:27:12.349Z,184
2017-02-16T08:28:21.542Z,204
2017-02-16T08:29:32.285Z,192
2017-02-16T08:30:41.462Z,156
2017-02-16T08:31:52.164Z,156
2017-02-16T08:33:02.088Z,184
2017-02-16T08:34:11.672Z,228
2017-02-16T08:35:20.479Z,216
2017-02-16T08:36:29.668Z,212
2017-02-16T08:37:39.641Z,268
2017-02-16T08:38:49.591Z,328
2017-02-16T08:39:59.932Z,316
2017-02-16T08:41:09.120Z,304
2017-02-16T08:42:19.085Z,324
2017-02-16T08:43:29.471Z,348
2017-02-16T08:44:39.034Z,372
2017-02-16T08:45:49.033Z,376
2017-02-16T08:46:58.998Z,348
2017-02-16T08:48:08.566Z,356
2017-02-16T08:49:18.450Z,392
2017-02-16T08:50:27.990Z,476
2017-02-16T08:51:37.592Z,584
2017-02-16T08:52:47.158Z,524
2017-02-16T08:53:57.500Z,480
2017-02-16T08:55:07.054Z,528
2017-02-16T08:56:17.049Z,616
2017-02-16T08:57:26.998Z,664
2017-02-16T08:58:36.175Z,680
2017-02-16T08:59:45.366Z,580
2017-02-16T09:00:54.589Z,620
2017-02-16T09:02:04.917Z,780
2017-02-16T09:03:14.491Z,912
2017-02-16T09:04:24.044Z,776
2017-02-16T09:05:33.970Z,624
2017-02-16T09:06:43.549Z,520
2017-02-16T09:07:53.502Z,360
2017-02-16T09:09:04.243Z,320
2017-02-16T09:10:14.592Z,344
2017-02-16T09:11:24.162Z,332
2017-02-16T09:12:34.489Z,276
2017-02-16T09:13:43.684Z,252
2017-02-16T09:14:53.630Z,232
2017-02-16T09:16:04.374Z,224
2017-02-16T09:17:13.902Z,208
2017-02-16T09:18:22.680Z,228
2017-02-16T09:19:32.231Z,236
2017-02-16T09:20:41.750Z,248
2017-02-16T09:21:51.696Z,272
2017-02-16T09:23:01.252Z,284
2017-02-16T09:24:10.761Z,300
2017-02-16T09:25:20.317Z,312
2017-02-16T09:26:29.483Z,320
2017-02-16T09:27:39.065Z,328
2017-02-16T09:28:49.385Z,332
2017-02-16T09:29:58.964Z,336
2017-02-16T09:31:09.313Z,308
2017-02-16T09:32:19.264Z,268
2017-02-16T09:33:29.605Z,264
2017-02-16T09:34:39.591Z,268
2017-02-16T09:35:48.764Z,260
2017-02-16T09:36:57.886Z,256
2017-02-16T09:38:07.816Z,260
2017-02-16T09:39:17.699Z,268
2017-02-16T09:40:27.256Z,264
2017-02-16T09:41:36.421Z,248
2017-02-16T09:42:45.146Z,244
2017-02-16T09:43:54.695Z,252
2017-02-16T09:45:05.049Z,248
2017-02-16T09:46:14.601Z,268
2017-02-16T09:47:24.165Z,296
2017-02-16T09:48:34.435Z,284
2017-02-16T09:49:43.223Z,276
2017-02-16T09:50:53.168Z,332
2017-02-16T09:52:03.132Z,376
2017-02-16T09:53:12.695Z,428
2017-02-16T09:54:23.034Z,440
2017-02-16T09:55:32.218Z,432
2017-02-16T09:56:41.411Z,448
2017-02-16T09:57:52.067Z,400
2017-02-16T09:59:02.002Z,344
2017-02-16T10:00:11.511Z,340
2017-02-16T10:01:21.439Z,360
2017-02-16T10:02:30.955Z,448
2017-02-16T10:03:40.140Z,500
2017-02-16T10:04:49.721Z,516
2017-02-16T10:05:59.700Z,508
2017-02-16T10:07:09.263Z,468
2017-02-16T10:08:19.221Z,460
2017-02-16T10:09:29.536Z,448
2017-02-16T10:10:39.480Z,504
2017-02-16T10:11:49.437Z,520
2017-02-16T10:12:58.988Z,488
2017-02-16T10:14:08.536Z,496
2017-02-16T10:15:18.483Z,516
2017-02-16T10:16:28.843Z,528
2017-02-16T10:17:39.187Z,568
2017-02-16T10:18:48.362Z,612
2017-02-16T10:19:57.530Z,648
2017-02-16T10:21:06.718Z,720
2017-02-16T10:23:14.484Z,616
2017-02-16T10:24:24.448Z,544
2017-02-16T10:25:33.641Z,504
2017-02-16T10:26:43.993Z,492
2017-02-16T10:27:54.321Z,484
2017-02-16T10:29:04.273Z,456
2017-02-16T10:30:14.222Z,412
2017-02-16T10:31:23.351Z,356
2017-02-16T10:32:32.519Z,312
2017-02-16T10:33:41.695Z,264
2017-02-16T10:34:51.263Z,292
2017-02-16T10:36:01.224Z,672
2017-02-16T10:37:11.175Z,1440
2017-02-16T10:38:20.685Z,980
2017-02-16T10:39:29.867Z,1192
2017-02-16T10:40:39.842Z,1456
2017-02-16T10:41:49.788Z,1548
2017-02-16T10:42:59.345Z,1396
2017-02-16T10:44:08.895Z,1460
2017-02-16T10:45:18.476Z,1476
2017-02-16T10:46:28.785Z,1452
2017-02-16T10:47:38.306Z,1420
2017-02-16T10:48:47.859Z,1648
2017-02-16T10:49:57.464Z,1560
2017-02-16T10:51:07.039Z,1784
2017-02-16T10:52:16.602Z,2176
2017-02-16T10:53:26.894Z,2092
2017-02-16T10:54:36.070Z,2336
2017-02-16T10:55:46.016Z,2600
2017-02-16T10:56:55.913Z,4936
2017-02-16T10:58:05.467Z,2536
2017-02-16T10:59:14.663Z,2016
2017-02-16T11:00:23.841Z,2400
2017-02-16T11:01:33.744Z,4344
2017-02-16T11:02:50.488Z,4144
2017-02-16T11:03:59.988Z,2168
2017-02-16T11:05:10.336Z,5876
2017-02-16T11:06:20.281Z,6964
2017-02-16T11:07:29.696Z,2412
2017-02-16T11:08:39.270Z,3368
2017-02-16T11:09:48.859Z,5576
2017-02-16T11:10:58.746Z,3704
2017-02-16T11:12:08.246Z,4560
2017-02-16T11:13:17.830Z,5172
2017-02-16T11:14:28.177Z,4232
2017-02-16T11:15:37.730Z,4088
2017-02-16T11:16:47.324Z,4048
2017-02-16T11:17:56.441Z,3324
2017-02-16T11:19:05.991Z,3220
2017-02-16T11:20:15.550Z,6404
2017-02-16T11:21:25.125Z,8684
2017-02-16T11:22:35.466Z,6228
2017-02-16T11:23:45.045Z,6900
2017-02-16T11:24:54.930Z,7036
2017-02-16T11:26:04.035Z,6148
2017-02-16T11:27:13.148Z,8380
2017-02-16T11:28:23.076Z,6668
2017-02-16T11:29:32.638Z,5228
2017-02-16T11:30:41.824Z,9184
2017-02-16T11:31:51.341Z,5940
2017-02-16T11:33:01.613Z,9016
2017-02-16T11:34:11.131Z,6292
2017-02-16T11:35:21.450Z,5544
2017-02-16T11:36:31.007Z,5148
2017-02-16T11:37:40.617Z,2460
2017-02-16T11:38:50.195Z,1636
2017-02-16T11:39:59.323Z,1340
2017-02-16T11:41:08.489Z,1192
2017-02-16T11:42:18.050Z,1048
2017-02-16T11:43:27.230Z,1264
2017-02-16T11:44:36.802Z,1284
2017-02-16T11:45:45.996Z,1260
2017-02-16T11:46:55.170Z,1120
2017-02-16T11:48:04.358Z,736
2017-02-16T11:49:13.556Z,868
2017-02-16T11:50:23.914Z,1264
2017-02-16T11:51:33.427Z,1076
2017-02-16T11:52:42.593Z,1188
2017-02-16T11:53:51.717Z,4268
2017-02-16T11:55:01.227Z,1556
2017-02-16T11:56:10.415Z,2096
2017-02-16T11:57:20.348Z,1960
2017-02-16T11:58:29.914Z,1788
2017-02-16T11:59:39.082Z,1644
2017-02-16T12:00:49.074Z,1844
2017-02-16T12:01:58.625Z,2624
2017-02-16T12:03:07.797Z,2088
2017-02-16T12:04:17.382Z,2744
2017-02-16T12:05:26.577Z,3340
2017-02-16T12:06:37.294Z,1712
2017-02-16T12:07:46.093Z,4352
2017-02-16T12:08:56.041Z,2432
2017-02-16T12:10:06.024Z,1476
2017-02-16T12:11:15.580Z,2164
2017-02-16T12:12:25.155Z,4484
2017-02-16T12:13:33.966Z,2704
2017-02-16T12:14:43.535Z,2836
2017-02-16T12:15:52.712Z,1672
2017-02-16T12:17:01.896Z,1992
2017-02-16T12:18:11.069Z,1648
2017-02-16T12:19:20.616Z,1668
2017-02-16T12:20:30.171Z,2440
2017-02-16T12:21:40.144Z,3188
2017-02-16T12:22:48.983Z,1904
2017-02-16T12:23:58.891Z,1284
2017-02-16T12:25:08.826Z,2684
2017-02-16T12:26:18.794Z,1652
2017-02-16T12:27:28.753Z,888
2017-02-16T12:28:38.699Z,540
2017-02-16T12:29:47.494Z,688
2017-02-16T12:30:57.843Z,800
2017-02-16T12:32:07.346Z,776
2017-02-16T12:33:17.294Z,680
2017-02-16T12:34:26.455Z,1116
2017-02-16T12:35:36.801Z,2308
2017-02-16T12:36:46.751Z,1472
2017-02-16T12:37:57.065Z,1084
2017-02-16T12:39:07.076Z,892
2017-02-16T12:40:16.203Z,428
2017-02-16T12:41:24.997Z,624
2017-02-16T12:42:34.140Z,1228
2017-02-16T12:43:44.076Z,1436
2017-02-16T12:44:54.010Z,1436
2017-02-16T12:46:03.190Z,892
2017-02-16T12:47:13.170Z,676
2017-02-16T12:48:22.737Z,576
2017-02-16T12:49:32.701Z,588
2017-02-16T12:50:42.268Z,744
2017-02-16T12:51:51.446Z,1216
2017-02-16T12:53:01.786Z,1316
2017-02-16T12:54:11.345Z,1296
2017-02-16T12:55:20.860Z,1596
2017-02-16T12:56:30.367Z,1488
2017-02-16T12:57:41.069Z,1696
2017-02-16T12:58:51.407Z,1448
2017-02-16T13:00:01.370Z,1540
2017-02-16T13:01:11.330Z,1488
2017-02-16T13:02:20.892Z,1468
2017-02-16T13:03:30.066Z,1628
2017-02-16T13:04:39.658Z,1500
2017-02-16T13:05:48.469Z,1420
2017-02-16T13:06:58.019Z,1280
2017-02-16T13:08:07.976Z,1340
2017-02-16T13:09:18.326Z,1264
2017-02-16T13:10:27.877Z,1160
2017-02-16T13:11:37.837Z,968
2017-02-16T13:12:47.027Z,828
2017-02-16T13:13:56.524Z,812
2017-02-16T13:15:07.243Z,792
2017-02-16T13:16:17.192Z,712
2017-02-16T13:17:26.358Z,600
2017-02-16T13:18:35.489Z,540
2017-02-16T13:19:44.650Z,428
2017-02-16T13:20:53.821Z,368
2017-02-16T13:22:03.330Z,360
2017-02-16T13:23:13.266Z,328
2017-02-16T13:24:22.824Z,292
2017-02-16T13:25:32.006Z,284
2017-02-16T13:26:40.802Z,308
2017-02-16T13:27:50.744Z,336
2017-02-16T13:29:00.295Z,440
2017-02-16T13:30:10.248Z,428
2017-02-16T13:31:19.051Z,508
2017-02-16T13:32:28.957Z,540
2017-02-16T13:33:38.884Z,496
2017-02-16T13:34:48.453Z,448
2017-02-16T13:35:57.622Z,396
2017-02-16T13:37:07.565Z,388
2017-02-16T13:38:17.507Z,340
2017-02-16T13:39:27.087Z,276
2017-02-16T13:40:36.270Z,272
2017-02-16T13:41:45.438Z,280
2017-02-16T13:42:54.633Z,340
2017-02-16T13:44:03.797Z,360
2017-02-16T13:45:13.776Z,344
2017-02-16T13:46:23.724Z,380
2017-02-16T13:47:32.475Z,404
2017-02-16T13:48:41.651Z,392
2017-02-16T13:49:51.595Z,420
2017-02-16T13:51:01.159Z,500
2017-02-16T13:52:11.110Z,504
2017-02-16T13:53:21.078Z,452
2017-02-16T13:54:30.961Z,416
2017-02-16T13:55:40.895Z,404
2017-02-16T13:56:50.083Z,400
2017-02-16T13:58:00.426Z,356
2017-02-16T13:59:10.332Z,300
2017-02-16T14:00:19.542Z,272
2017-02-16T14:01:29.504Z,296
2017-02-16T14:02:39.001Z,372
2017-02-16T14:03:49.318Z,428
2017-02-16T14:04:58.864Z,432
2017-02-16T14:06:08.809Z,420
2017-02-16T14:07:18.383Z,440
2017-02-16T14:08:27.941Z,476
2017-02-16T14:09:38.216Z,504
2017-02-16T14:10:47.779Z,544
2017-02-16T14:11:57.738Z,556
2017-02-16T14:13:07.300Z,552
2017-02-16T14:14:18.037Z,532
2017-02-16T14:15:28.383Z,512
2017-02-16T14:16:38.357Z,496
2017-02-16T14:17:48.708Z,516
2017-02-16T14:18:58.631Z,560
2017-02-16T14:20:08.176Z,588
2017-02-16T14:21:17.377Z,588
2017-02-16T14:22:27.342Z,556
2017-02-16T14:23:37.679Z,536
2017-02-16T14:24:47.636Z,528
2017-02-16T14:25:57.200Z,532
2017-02-16T14:27:06.375Z,564
2017-02-16T14:28:15.877Z,616
2017-02-16T14:29:26.186Z,680
2017-02-16T14:30:36.538Z,780
2017-02-16T14:31:46.432Z,824
2017-02-16T14:32:57.160Z,728
2017-02-16T14:34:07.128Z,636
2017-02-16T14:35:16.698Z,568
2017-02-16T14:36:26.646Z,536
2017-02-16T14:37:37.368Z,556
2017-02-16T14:38:47.699Z,576
2017-02-16T14:39:57.299Z,552
2017-02-16T14:41:06.871Z,552
2017-02-16T14:42:16.824Z,544
2017-02-16T14:43:26.347Z,532
2017-02-16T14:44:35.539Z,520
2017-02-16T14:45:45.893Z,548
2017-02-16T14:46:55.812Z,560
2017-02-16T14:48:04.958Z,572
2017-02-16T14:49:15.679Z,576
2017-02-16T14:50:25.671Z,576
2017-02-16T14:51:35.617Z,556
2017-02-16T14:52:45.179Z,544
2017-02-16T14:53:55.122Z,540
2017-02-16T14:55:04.310Z,552
2017-02-16T14:56:14.642Z,572
2017-02-16T14:57:23.829Z,576
2017-02-16T14:58:34.164Z,572
2017-02-16T14:59:44.123Z,588
2017-02-16T15:00:53.676Z,568
2017-02-16T15:02:03.834Z,564
2017-02-16T15:03:13.419Z,588
2017-02-16T15:04:22.987Z,596
2017-02-16T15:05:32.546Z,584
2017-02-16T15:06:42.089Z,600
2017-02-16T15:07:52.036Z,688
2017-02-16T15:09:01.205Z,796
2017-02-16T15:10:11.473Z,764
2017-02-16T15:11:21.736Z,656
2017-02-16T15:12:31.315Z,596
2017-02-16T15:13:41.677Z,564
2017-02-16T15:14:51.618Z,548
2017-02-16T15:16:01.568Z,600
2017-02-16T15:17:10.756Z,640
2017-02-16T15:18:20.315Z,664
2017-02-16T15:19:29.507Z,656
2017-02-16T15:20:39.056Z,656
2017-02-16T15:21:49.387Z,656
2017-02-16T15:22:59.713Z,660
2017-02-16T15:24:08.842Z,656
2017-02-16T15:25:18.790Z,656
2017-02-16T15:26:28.302Z,636
2017-02-16T15:27:38.201Z,620
2017-02-16T15:28:48.139Z,612
2017-02-16T15:29:57.263Z,616
2017-02-16T15:31:06.427Z,620
2017-02-16T15:32:16.367Z,612
2017-02-16T15:33:26.268Z,632
2017-02-16T15:34:35.814Z,628
2017-02-16T15:35:45.008Z,624
2017-02-16T15:36:54.197Z,616
2017-02-16T15:38:03.766Z,596
2017-02-16T15:39:13.716Z,572
2017-02-16T15:40:22.441Z,540
2017-02-16T15:41:32.376Z,528
2017-02-16T15:42:41.933Z,508
2017-02-16T15:43:51.890Z,500
2017-02-16T15:45:01.876Z,484
2017-02-16T15:46:11.444Z,468
2017-02-16T15:47:20.955Z,452
2017-02-16T15:48:30.501Z,460
2017-02-16T15:49:39.693Z,432
2017-02-16T15:50:49.261Z,400
2017-02-16T15:51:59.231Z,372
2017-02-16T15:53:09.968Z,356
2017-02-16T15:54:19.550Z,340
2017-02-16T15:55:29.510Z,328
2017-02-16T15:56:39.091Z,312
2017-02-16T15:57:48.642Z,304
2017-02-16T15:58:57.811Z,292
2017-02-16T16:00:07.366Z,276
2017-02-16T16:01:16.878Z,264
2017-02-16T16:02:27.196Z,248
2017-02-16T16:03:36.750Z,236
2017-02-16T16:04:46.649Z,224
2017-02-16T16:05:56.150Z,216
2017-02-16T16:07:06.430Z,208
2017-02-16T16:08:15.974Z,200
2017-02-16T16:09:25.935Z,188
2017-02-16T16:10:36.650Z,184
2017-02-16T16:11:46.628Z,172
2017-02-16T16:12:56.590Z,168
2017-02-16T16:14:07.304Z,160
2017-02-16T16:15:16.875Z,152
2017-02-16T16:16:26.825Z,148
2017-02-16T16:17:36.389Z,136
2017-02-16T16:18:46.316Z,132
2017-02-16T16:19:56.167Z,124
2017-02-16T16:21:05.682Z,112
2017-02-16T16:22:15.619Z,108
2017-02-16T16:23:25.561Z,100
2017-02-16T16:24:35.125Z,92
2017-02-16T16:25:44.684Z,92
2017-02-16T16:26:54.586Z,88